Time;durP1;ratioP1;P1;durP2;ratioP2;P2;SDS_P1;SDS_P2;PMS_P1;PMS_P2;Temp;Humidity;BMP_temperature;BMP_pressure;BME280_temperature;BME280_humidity;BME280_pressure;Samples;Min_cycle;Max_cycle;Signal;HPM_P1;HPM_P2
2023/03/02 00:01:41;;;;;;;24.80;19.17;;;5.30;99.90;;;;;;5050598;28;20205;-83
2023/03/02 00:04:14;;;;;;;29.20;20.02;;;5.30;99.90;;;;;;5050696;28;20206;-83
2023/03/02 00:06:43;;;;;;;26.83;19.77;;;5.30;99.90;;;;;;5050940;28;20209;-83
2023/03/02 00:09:12;;;;;;;23.17;18.30;;;5.30;99.90;;;;;;5050685;28;20221;-84
2023/03/02 00:11:41;;;;;;;31.45;19.55;;;5.30;99.90;;;;;;5050530;28;20229;-83
2023/03/02 00:14:10;;;;;;;22.88;19.05;;;5.30;99.90;;;;;;5050202;28;20206;-83
2023/03/02 00:16:39;;;;;;;38.15;21.02;;;5.40;99.90;;;;;;5050488;28;20221;-83
2023/03/02 00:19:09;;;;;;;28.85;20.55;;;5.30;99.90;;;;;;5050642;28;20222;-84
2023/03/02 00:21:40;;;;;;;29.88;23.08;;;5.30;99.90;;;;;;5050626;28;20220;-83
2023/03/02 00:24:08;;;;;;;30.52;20.00;;;5.30;99.90;;;;;;5049185;28;20224;-83
2023/03/02 00:26:37;;;;;;;30.15;21.75;;;5.40;99.90;;;;;;5050747;28;20225;-83
2023/03/02 00:29:05;;;;;;;26.70;20.35;;;5.30;99.90;;;;;;5050166;28;20287;-83
2023/03/02 00:31:34;;;;;;;24.75;20.63;;;5.30;99.90;;;;;;5050507;28;20236;-83
2023/03/02 00:34:02;;;;;;;21.60;18.38;;;5.40;99.90;;;;;;5050898;28;20292;-84
2023/03/02 00:36:31;;;;;;;25.75;20.17;;;5.30;99.90;;;;;;5049914;28;20214;-83
2023/03/02 00:39:01;;;;;;;27.13;21.60;;;5.30;99.90;;;;;;5049791;28;20226;-83
2023/03/02 00:41:30;;;;;;;26.40;19.40;;;5.30;99.90;;;;;;5050510;28;20220;-83
2023/03/02 00:43:58;;;;;;;25.92;18.83;;;5.30;99.90;;;;;;5050424;28;20213;-83
2023/03/02 00:46:27;;;;;;;30.05;21.85;;;5.30;99.90;;;;;;5050288;28;20212;-83
2023/03/02 00:48:55;;;;;;;24.02;19.50;;;5.30;99.90;;;;;;5049092;28;20264;-83
2023/03/02 00:51:24;;;;;;;29.90;20.90;;;5.30;99.90;;;;;;5049786;28;20234;-83
2023/03/02 00:53:52;;;;;;;26.70;20.63;;;5.30;99.90;;;;;;5051257;28;20216;-83
2023/03/02 00:56:22;;;;;;;24.58;20.90;;;5.30;99.90;;;;;;5052679;28;20213;-84
2023/03/02 00:58:50;;;;;;;25.48;19.95;;;5.30;99.90;;;;;;5052169;28;20226;-83
2023/03/02 01:01:18;;;;;;;22.95;19.65;;;5.30;99.90;;;;;;5052754;28;20210;-83
2023/03/02 01:03:47;;;;;;;31.50;19.90;;;5.30;99.90;;;;;;5052749;28;20284;-83
2023/03/02 01:06:17;;;;;;;25.05;19.73;;;5.30;99.90;;;;;;5056202;28;20224;-84
2023/03/02 01:08:45;;;;;;;24.65;20.25;;;5.30;99.90;;;;;;5055741;28;20236;-83
2023/03/02 01:11:15;;;;;;;29.63;21.77;;;5.30;99.90;;;;;;5056386;28;20214;-83
2023/03/02 01:13:45;;;;;;;29.40;21.13;;;5.30;99.90;;;;;;5056691;28;20233;-83
2023/03/02 01:16:14;;;;;;;29.77;21.00;;;5.30;99.90;;;;;;5056140;28;20216;-83
2023/03/02 01:18:44;;;;;;;29.52;20.42;;;5.30;99.90;;;;;;5055696;28;20225;-83
2023/03/02 01:21:15;;;;;;;25.60;20.20;;;5.30;99.90;;;;;;5056376;28;20212;-83
2023/03/02 01:23:44;;;;;;;24.30;20.20;;;5.30;99.90;;;;;;5055056;28;20284;-83
2023/03/02 01:26:12;;;;;;;27.30;20.50;;;5.30;99.90;;;;;;5056671;28;20210;-83
2023/03/02 01:28:44;;;;;;;28.23;21.85;;;5.20;99.90;;;;;;5055831;28;20230;-82
2023/03/02 01:31:13;;;;;;;23.35;19.15;;;5.20;99.90;;;;;;5056204;28;20218;-83
2023/03/02 01:33:44;;;;;;;28.88;20.90;;;5.30;99.90;;;;;;5056364;28;20208;-83
2023/03/02 01:36:12;;;;;;;30.80;21.00;;;5.20;99.90;;;;;;5056001;28;20216;-83
2023/03/02 01:38:40;;;;;;;26.48;21.05;;;5.20;99.90;;;;;;5055280;28;20232;-83
2023/03/02 01:41:09;;;;;;;28.92;21.40;;;5.20;99.90;;;;;;5055890;28;20230;-83
2023/03/02 01:43:38;;;;;;;29.38;21.63;;;5.20;99.90;;;;;;5055949;28;20201;-83
2023/03/02 01:46:12;;;;;;;25.25;19.60;;;5.20;99.90;;;;;;5055902;28;20205;-83
2023/03/02 01:48:46;;;;;;;25.05;20.60;;;5.20;99.90;;;;;;5055052;28;20225;-83
2023/03/02 01:51:18;;;;;;;24.92;18.73;;;5.20;99.90;;;;;;5055378;28;20218;-83
2023/03/02 01:53:48;;;;;;;31.50;21.98;;;5.10;99.90;;;;;;5055926;28;20209;-83
2023/03/02 01:56:23;;;;;;;27.33;21.58;;;5.10;99.90;;;;;;5055865;28;20216;-83
2023/03/02 01:59:00;;;;;;;23.27;19.67;;;5.10;99.90;;;;;;5055155;28;20235;-83
2023/03/02 02:01:32;;;;;;;25.90;18.92;;;5.10;99.90;;;;;;5055179;28;20197;-83
2023/03/02 02:04:01;;;;;;;24.58;19.77;;;5.10;99.90;;;;;;5055725;28;20205;-83
2023/03/02 02:06:36;;;;;;;43.08;22.83;;;5.10;99.90;;;;;;5055377;28;20240;-83
2023/03/02 02:09:09;;;;;;;27.35;20.27;;;5.10;99.90;;;;;;5055191;28;20239;-83
2023/03/02 02:11:37;;;;;;;22.17;18.85;;;5.00;99.90;;;;;;5055135;28;20232;-83
2023/03/02 02:14:06;;;;;;;21.25;18.00;;;5.00;99.90;;;;;;5055118;28;20202;-83
2023/03/02 02:16:38;;;;;;;25.10;20.58;;;5.00;99.90;;;;;;5055131;28;20209;-83
2023/03/02 02:19:16;;;;;;;35.33;20.80;;;4.90;99.90;;;;;;5055278;28;20232;-83
2023/03/02 02:21:45;;;;;;;23.20;19.67;;;4.90;99.90;;;;;;5054978;28;20204;-83
2023/03/02 02:24:21;;;;;;;27.88;19.98;;;4.90;99.90;;;;;;5053813;28;20210;-83
2023/03/02 02:26:56;;;;;;;28.70;21.38;;;4.90;99.90;;;;;;5054767;28;20210;-83
2023/03/02 02:29:29;;;;;;;24.63;20.73;;;4.90;99.90;;;;;;5055077;28;20232;-83
2023/03/02 02:32:02;;;;;;;25.50;20.52;;;4.80;99.90;;;;;;5055319;28;20222;-83
2023/03/02 02:34:34;;;;;;;23.80;19.58;;;4.80;99.90;;;;;;5054824;28;20236;-83
2023/03/02 02:37:09;;;;;;;24.35;19.00;;;4.70;99.90;;;;;;5054809;28;20220;-83
2023/03/02 02:39:40;;;;;;;27.27;20.92;;;4.70;99.90;;;;;;5055069;28;20221;-83
2023/03/02 02:42:15;;;;;;;24.20;18.70;;;4.60;99.90;;;;;;5054943;28;20206;-84
2023/03/02 02:44:44;;;;;;;30.10;21.52;;;4.50;99.90;;;;;;5054910;28;20207;-84
2023/03/02 02:47:18;;;;;;;27.75;19.52;;;4.50;99.90;;;;;;5054136;28;20237;-83
2023/03/02 02:49:49;;;;;;;23.48;19.98;;;4.40;99.90;;;;;;5054663;28;20229;-83
2023/03/02 02:52:20;;;;;;;28.35;20.52;;;4.40;99.90;;;;;;5054544;28;20218;-83
2023/03/02 02:54:50;;;;;;;23.05;19.40;;;4.30;99.90;;;;;;5054653;28;20209;-83
2023/03/02 02:57:24;;;;;;;23.60;20.33;;;4.20;99.90;;;;;;5053963;28;20225;-83
2023/03/02 02:59:55;;;;;;;39.95;20.30;;;4.20;99.90;;;;;;5054662;28;20232;-84
2023/03/02 03:02:28;;;;;;;22.15;19.42;;;4.20;99.90;;;;;;5054625;28;20212;-83
2023/03/02 03:05:02;;;;;;;21.73;19.42;;;4.10;99.90;;;;;;5054410;28;20216;-83
2023/03/02 03:07:31;;;;;;;24.83;20.08;;;4.10;99.90;;;;;;5054173;28;20216;-83
2023/03/02 03:10:04;;;;;;;31.52;21.42;;;4.00;99.90;;;;;;5054177;28;20229;-83
2023/03/02 03:12:35;;;;;;;25.67;20.15;;;4.00;99.90;;;;;;5054226;28;20229;-83
2023/03/02 03:15:05;;;;;;;24.13;19.02;;;3.90;99.90;;;;;;5054218;28;20217;-83
2023/03/02 03:17:33;;;;;;;24.75;17.83;;;3.90;99.90;;;;;;5053572;28;20217;-83
2023/03/02 03:20:07;;;;;;;24.65;19.50;;;3.90;99.90;;;;;;5054297;28;20236;-83
2023/03/02 03:22:36;;;;;;;35.25;19.95;;;3.80;99.90;;;;;;5052582;28;20209;-83
2023/03/02 03:25:06;;;;;;;22.77;18.77;;;3.80;99.90;;;;;;5054235;28;20241;-83
2023/03/02 03:27:36;;;;;;;27.45;21.02;;;3.80;99.90;;;;;;5052825;28;20210;-83
2023/03/02 03:30:05;;;;;;;28.75;20.83;;;3.80;99.90;;;;;;5053617;28;20240;-84
2023/03/02 03:32:34;;;;;;;30.88;23.02;;;3.70;99.90;;;;;;5053440;28;20221;-83
2023/03/02 03:35:07;;;;;;;29.10;21.20;;;3.70;99.90;;;;;;5054079;28;20217;-83
2023/03/02 03:37:36;;;;;;;31.40;22.05;;;3.70;99.90;;;;;;5053574;28;20214;-83
2023/03/02 03:40:05;;;;;;;33.45;21.17;;;3.70;99.90;;;;;;5053565;28;20253;-83
2023/03/02 03:42:37;;;;;;;22.35;19.95;;;3.60;99.90;;;;;;5053504;28;20212;-83
2023/03/02 03:45:07;;;;;;;24.45;20.13;;;3.60;99.90;;;;;;5053449;28;20216;-83
2023/03/02 03:47:35;;;;;;;24.50;19.58;;;3.60;99.90;;;;;;5053048;28;20243;-84
2023/03/02 03:50:04;;;;;;;24.02;18.52;;;3.60;99.90;;;;;;5053399;28;20225;-83
2023/03/02 03:52:35;;;;;;;31.35;19.23;;;3.50;99.90;;;;;;5053124;28;20217;-83
2023/03/02 03:55:04;;;;;;;27.95;20.17;;;3.50;99.90;;;;;;5053279;28;20206;-83
2023/03/02 03:57:32;;;;;;;24.77;18.75;;;3.40;99.90;;;;;;5052489;28;20213;-83
2023/03/02 04:00:04;;;;;;;23.67;19.35;;;3.40;99.90;;;;;;5053473;28;20233;-83
2023/03/02 04:02:33;;;;;;;22.90;19.35;;;3.40;99.90;;;;;;5053381;28;20216;-83
2023/03/02 04:05:07;;;;;;;26.15;19.95;;;3.40;99.90;;;;;;5053248;28;20209;-83
2023/03/02 04:07:36;;;;;;;24.35;20.20;;;3.30;99.90;;;;;;5052745;28;20293;-83
2023/03/02 04:10:07;;;;;;;21.70;18.02;;;3.40;99.90;;;;;;5052823;28;20233;-84
2023/03/02 04:12:38;;;;;;;26.23;19.08;;;3.30;99.90;;;;;;5053268;28;20230;-83
2023/03/02 04:15:13;;;;;;;21.85;18.85;;;3.30;99.90;;;;;;5053393;28;20214;-83
2023/03/02 04:17:42;;;;;;;24.65;19.25;;;3.30;99.90;;;;;;5052580;28;20209;-83
2023/03/02 04:20:14;;;;;;;24.75;19.10;;;3.30;99.90;;;;;;5052710;28;20245;-83
2023/03/02 04:22:44;;;;;;;24.20;19.75;;;3.20;99.90;;;;;;5051724;28;20202;-83
2023/03/02 04:25:14;;;;;;;20.17;18.00;;;3.20;99.90;;;;;;5052770;28;20216;-83
2023/03/02 04:27:42;;;;;;;24.20;19.35;;;3.20;99.90;;;;;;5052096;28;20252;-83
2023/03/02 04:30:14;;;;;;;30.48;21.20;;;3.20;99.90;;;;;;5053026;28;20225;-83
2023/03/02 04:32:42;;;;;;;20.20;17.92;;;3.10;99.90;;;;;;5052989;28;20268;-83
2023/03/02 04:35:11;;;;;;;20.50;18.23;;;3.10;99.90;;;;;;5052664;28;20217;-83
2023/03/02 04:37:41;;;;;;;28.08;20.10;;;3.00;99.90;;;;;;5052088;28;20202;-83
2023/03/02 04:40:11;;;;;;;24.85;19.63;;;3.00;99.90;;;;;;5051575;28;20231;-83
2023/03/02 04:42:40;;;;;;;26.23;19.33;;;3.00;99.90;;;;;;5052915;28;20269;-83
2023/03/02 04:45:09;;;;;;;22.85;19.50;;;3.00;99.90;;;;;;5052535;28;20213;-83
2023/03/02 04:47:42;;;;;;;35.40;20.42;;;2.90;99.90;;;;;;5052025;28;20211;-83
2023/03/02 04:50:14;;;;;;;25.33;18.77;;;2.90;99.90;;;;;;5052824;28;20236;-83
2023/03/02 04:52:43;;;;;;;25.88;20.05;;;2.90;99.90;;;;;;5052731;28;20213;-83
2023/03/02 04:55:18;;;;;;;26.48;20.67;;;2.80;99.90;;;;;;5052369;28;20297;-83
2023/03/02 04:57:49;;;;;;;30.65;20.33;;;2.80;99.90;;;;;;5051876;28;20204;-83
2023/03/02 05:00:22;;;;;;;29.63;19.35;;;2.70;99.90;;;;;;5052612;28;20233;-83
2023/03/02 05:02:52;;;;;;;25.40;19.92;;;2.70;99.90;;;;;;5052620;28;20290;-83
2023/03/02 05:05:23;;;;;;;31.65;19.60;;;2.70;99.90;;;;;;5052447;28;20209;-83
2023/03/02 05:07:52;;;;;;;38.20;21.02;;;2.60;99.90;;;;;;5051952;28;20210;-84
2023/03/02 05:10:22;;;;;;;25.73;18.45;;;2.70;99.90;;;;;;5052422;28;20221;-83
2023/03/02 05:13:01;;;;;;;30.38;19.38;;;2.60;99.90;;;;;;5052595;28;20206;-83
2023/03/02 05:15:32;;;;;;;20.50;17.30;;;2.60;99.90;;;;;;5052214;28;20276;-84
2023/03/02 05:18:03;;;;;;;21.55;17.63;;;2.60;99.90;;;;;;5052134;28;20205;-83
2023/03/02 05:20:31;;;;;;;19.15;17.08;;;2.60;99.90;;;;;;5052168;28;20233;-83
2023/03/02 05:23:03;;;;;;;20.45;16.80;;;2.60;99.90;;;;;;5051342;28;20209;-83
2023/03/02 05:25:33;;;;;;;29.35;19.25;;;2.60;99.90;;;;;;5052663;28;20210;-83
2023/03/02 05:28:02;;;;;;;20.35;17.50;;;2.60;99.90;;;;;;5051754;28;20210;-83
2023/03/02 05:30:36;;;;;;;25.02;18.00;;;2.50;99.90;;;;;;5052053;28;20229;-83
2023/03/02 05:33:06;;;;;;;24.52;18.25;;;2.50;99.90;;;;;;5052164;28;20312;-83
2023/03/02 05:35:34;;;;;;;28.90;21.75;;;2.50;99.90;;;;;;5052316;28;20201;-83
2023/03/02 05:38:03;;;;;;;29.83;21.77;;;2.50;99.90;;;;;;5051674;28;20265;-83
2023/03/02 05:40:32;;;;;;;24.90;20.25;;;2.50;99.90;;;;;;5051956;28;20221;-83
2023/03/02 05:43:00;;;;;;;24.83;20.90;;;2.50;99.90;;;;;;5051954;28;20284;-83
2023/03/02 05:45:31;;;;;;;24.92;20.83;;;2.50;99.90;;;;;;5052251;28;20212;-83
2023/03/02 05:47:59;;;;;;;25.00;19.92;;;2.50;99.90;;;;;;5051441;28;20202;-84
2023/03/02 05:50:29;;;;;;;26.88;20.80;;;2.50;99.90;;;;;;5053150;28;20230;-83
2023/03/02 05:52:58;;;;;;;27.67;20.55;;;2.50;99.90;;;;;;5055484;28;20213;-83
2023/03/02 05:55:27;;;;;;;25.42;20.95;;;2.50;99.90;;;;;;5055476;28;20197;-83
2023/03/02 05:57:58;;;;;;;32.42;21.77;;;2.50;99.90;;;;;;5055015;28;20289;-83
2023/03/02 06:00:26;;;;;;;24.85;20.02;;;2.60;99.90;;;;;;5055818;28;20229;-83
2023/03/02 06:02:55;;;;;;;29.88;22.08;;;2.60;99.90;;;;;;5055731;28;20213;-83
2023/03/02 06:05:24;;;;;;;24.38;21.40;;;2.50;99.90;;;;;;5055456;28;20263;-82
2023/03/02 06:07:53;;;;;;;30.48;21.92;;;2.50;99.90;;;;;;5054884;28;20217;-82
2023/03/02 06:10:22;;;;;;;29.70;20.55;;;2.60;99.90;;;;;;5055467;28;20229;-83
2023/03/02 06:12:51;;;;;;;26.63;21.08;;;2.60;99.90;;;;;;5055597;28;20201;-83
2023/03/02 06:15:19;;;;;;;29.90;20.55;;;2.60;99.90;;;;;;5055219;28;20230;-82
2023/03/02 06:17:47;;;;;;;20.85;18.55;;;2.60;99.90;;;;;;5054974;28;20206;-83
2023/03/02 06:20:17;;;;;;;26.73;20.90;;;2.70;99.90;;;;;;5054691;28;20222;-83
2023/03/02 06:22:47;;;;;;;24.65;19.70;;;2.80;99.90;;;;;;5053803;28;20210;-83
2023/03/02 06:25:19;;;;;;;23.35;18.77;;;2.80;99.90;;;;;;5054977;28;20209;-83
2023/03/02 06:27:50;;;;;;;27.05;19.05;;;2.80;99.90;;;;;;5054791;28;20217;-83
2023/03/02 06:30:20;;;;;;;23.30;19.45;;;2.90;99.90;;;;;;5055221;28;20221;-83
2023/03/02 06:32:49;;;;;;;25.90;18.63;;;2.90;99.90;;;;;;5055055;28;20213;-83
2023/03/02 06:35:18;;;;;;;26.83;19.95;;;3.00;99.90;;;;;;5054662;28;20248;-82
2023/03/02 06:37:46;;;;;;;23.73;18.85;;;3.00;99.90;;;;;;5053806;28;20236;-82
2023/03/02 06:40:14;;;;;;;26.08;20.45;;;3.00;99.90;;;;;;5054835;28;20241;-82
2023/03/02 06:42:44;;;;;;;20.92;17.85;;;3.10;99.90;;;;;;5054737;28;20209;-82
2023/03/02 06:45:12;;;;;;;30.42;21.75;;;3.10;99.90;;;;;;5054449;28;20210;-83
2023/03/02 06:47:40;;;;;;;27.45;20.00;;;3.20;99.90;;;;;;5054300;28;20233;-83
2023/03/02 06:50:10;;;;;;;23.30;19.65;;;3.20;99.90;;;;;;5053860;28;20224;-83
2023/03/02 06:52:39;;;;;;;24.90;19.77;;;3.30;99.90;;;;;;5054626;28;20206;-83
2023/03/02 06:55:08;;;;;;;24.55;20.35;;;3.30;99.90;;;;;;5054484;28;20213;-83
2023/03/02 06:57:36;;;;;;;27.58;21.23;;;3.30;99.90;;;;;;5053939;28;20214;-83
2023/03/02 07:00:10;;;;;;;26.48;19.92;;;3.30;99.90;;;;;;5054811;28;20243;-83
2023/03/02 07:02:38;;;;;;;24.10;19.70;;;3.40;99.90;;;;;;5053528;28;20209;-83
2023/03/02 07:05:07;;;;;;;27.15;19.17;;;3.40;99.90;;;;;;5054287;28;20214;-82
2023/03/02 07:07:35;;;;;;;25.38;18.70;;;3.40;99.90;;;;;;5053683;28;20208;-83
2023/03/02 07:10:04;;;;;;;30.05;20.42;;;3.50;99.90;;;;;;5054222;28;20233;-82
2023/03/02 07:12:32;;;;;;;22.42;19.00;;;3.50;99.90;;;;;;5054553;28;20212;-83
2023/03/02 07:15:01;;;;;;;23.45;18.63;;;3.50;99.90;;;;;;5053909;28;20225;-82
2023/03/02 07:17:31;;;;;;;22.77;18.25;;;3.60;99.90;;;;;;5053557;28;20208;-82
2023/03/02 07:19:59;;;;;;;25.00;18.77;;;3.60;99.90;;;;;;5053940;28;20222;-82
2023/03/02 07:22:27;;;;;;;26.83;20.70;;;3.70;99.90;;;;;;5052725;28;20208;-82
2023/03/02 07:24:55;;;;;;;28.05;20.60;;;3.70;99.90;;;;;;5054129;28;20205;-82
2023/03/02 07:27:23;;;;;;;29.05;20.35;;;3.80;99.90;;;;;;5053623;28;20212;-82
2023/03/02 07:29:52;;;;;;;30.20;18.15;;;3.80;99.90;;;;;;5053753;28;20225;-82
2023/03/02 07:32:20;;;;;;;23.80;19.75;;;3.80;99.90;;;;;;5053792;28;20215;-82
2023/03/02 07:34:50;;;;;;;25.90;20.45;;;3.90;99.90;;;;;;5054177;28;20229;-82
2023/03/02 07:37:18;;;;;;;27.63;20.73;;;3.90;99.90;;;;;;5053123;28;20209;-82
2023/03/02 07:39:48;;;;;;;28.00;19.48;;;3.90;99.90;;;;;;5053653;28;20225;-82
2023/03/02 07:42:17;;;;;;;25.67;19.27;;;3.90;99.90;;;;;;5053574;28;20202;-82
2023/03/02 07:44:45;;;;;;;26.10;20.08;;;4.00;99.90;;;;;;5053583;28;20301;-82
2023/03/02 07:47:14;;;;;;;22.23;18.63;;;4.00;99.90;;;;;;5053499;28;20210;-82
2023/03/02 07:49:42;;;;;;;25.98;19.45;;;4.10;99.90;;;;;;5053198;28;20225;-82
2023/03/02 07:52:12;;;;;;;21.70;18.27;;;4.10;99.90;;;;;;5053077;28;20206;-82
2023/03/02 07:54:40;;;;;;;33.38;19.60;;;4.20;99.90;;;;;;5053194;28;20222;-82
2023/03/02 07:57:08;;;;;;;25.30;20.13;;;4.20;99.90;;;;;;5052905;28;20202;-83
2023/03/02 07:59:37;;;;;;;24.83;19.40;;;4.20;99.90;;;;;;5053383;28;20308;-83
2023/03/02 08:02:05;;;;;;;21.95;18.73;;;4.20;99.90;;;;;;5053543;28;20373;-83
2023/03/02 08:04:35;;;;;;;28.70;20.45;;;4.30;99.90;;;;;;5052859;28;20225;-83
2023/03/02 08:07:04;;;;;;;23.95;18.23;;;4.40;99.90;;;;;;5051510;28;20210;-83
2023/03/02 08:09:33;;;;;;;24.52;20.33;;;4.40;99.90;;;;;;5053052;28;20226;-83
2023/03/02 08:12:02;;;;;;;26.55;20.67;;;4.50;99.90;;;;;;5053059;28;20205;-83
2023/03/02 08:14:30;;;;;;;22.92;20.40;;;4.60;99.90;;;;;;5053172;28;20206;-83
2023/03/02 08:16:58;;;;;;;23.05;20.50;;;4.60;99.90;;;;;;5052478;28;20228;-83
2023/03/02 08:19:26;;;;;;;33.08;22.52;;;4.60;99.90;;;;;;5052756;28;20225;-83
2023/03/02 08:21:55;;;;;;;25.58;19.77;;;4.70;99.90;;;;;;5052505;28;20213;-83
2023/03/02 08:24:24;;;;;;;30.75;22.52;;;4.70;99.90;;;;;;5053892;28;20209;-83
2023/03/02 08:26:55;;;;;;;28.95;20.40;;;4.80;99.90;;;;;;5052756;28;20202;-82
2023/03/02 08:29:24;;;;;;;39.95;22.95;;;4.90;99.90;;;;;;5053000;28;20233;-82
2023/03/02 08:31:52;;;;;;;25.60;20.42;;;5.00;99.90;;;;;;5052779;28;20213;-82
2023/03/02 08:34:20;;;;;;;29.05;20.67;;;5.10;99.90;;;;;;5052954;28;20228;-82
2023/03/02 08:36:49;;;;;;;33.63;23.10;;;5.20;99.90;;;;;;5051937;28;20313;-82
2023/03/02 08:39:17;;;;;;;23.27;19.25;;;5.30;99.90;;;;;;5052923;28;20232;-82
2023/03/02 08:41:46;;;;;;;23.52;21.00;;;5.50;99.90;;;;;;5054758;28;20213;-84
2023/03/02 08:44:16;;;;;;;27.63;22.08;;;5.60;99.90;;;;;;5052398;28;20209;-83
2023/03/02 08:46:45;;;;;;;29.65;20.65;;;5.70;99.90;;;;;;5052341;28;20210;-83
2023/03/02 08:49:13;;;;;;;27.92;20.58;;;5.80;99.90;;;;;;5052363;28;20310;-83
2023/03/02 08:51:41;;;;;;;28.27;19.92;;;5.90;99.90;;;;;;5052701;28;20209;-83
2023/03/02 08:54:10;;;;;;;27.48;20.67;;;6.10;99.90;;;;;;5052826;28;20202;-83
2023/03/02 08:56:40;;;;;;;29.70;19.35;;;6.30;99.90;;;;;;5052187;28;20317;-83
2023/03/02 08:59:12;;;;;;;24.80;19.15;;;6.40;99.90;;;;;;5052405;28;20312;-83
2023/03/02 09:01:43;;;;;;;24.73;19.33;;;6.60;99.90;;;;;;5052366;28;20198;-83
2023/03/02 09:04:11;;;;;;;23.20;18.80;;;6.80;99.90;;;;;;5052607;28;20202;-83
2023/03/02 09:06:41;;;;;;;30.42;20.17;;;6.90;99.90;;;;;;5052798;28;20197;-83
2023/03/02 09:09:12;;;;;;;27.10;18.95;;;7.00;99.90;;;;;;5052430;28;20226;-83
2023/03/02 09:11:42;;;;;;;32.00;20.55;;;7.20;99.90;;;;;;5052368;28;20209;-83
2023/03/02 09:14:10;;;;;;;23.83;18.33;;;7.30;99.90;;;;;;5052344;28;20206;-83
2023/03/02 09:16:39;;;;;;;33.92;20.80;;;7.60;99.90;;;;;;5052039;28;20222;-83
2023/03/02 09:19:09;;;;;;;26.85;21.23;;;7.80;99.90;;;;;;5052151;28;20237;-83
2023/03/02 09:21:37;;;;;;;24.52;20.30;;;8.00;99.90;;;;;;5052372;28;25084;-83
2023/03/02 09:24:06;;;;;;;26.52;18.85;;;8.20;99.90;;;;;;5052125;28;20212;-83
2023/03/02 09:26:34;;;;;;;22.77;18.60;;;8.60;99.90;;;;;;5055008;28;20240;-83
2023/03/02 09:29:03;;;;;;;25.23;18.50;;;9.10;99.90;;;;;;5055867;28;20221;-83
2023/03/02 09:31:31;;;;;;;25.40;20.10;;;9.50;99.90;;;;;;5056138;28;20419;-83
2023/03/02 09:34:00;;;;;;;25.02;19.42;;;10.00;99.90;;;;;;5056283;28;20454;-84
2023/03/02 09:36:31;;;;;;;24.13;19.33;;;;;;;;;;5056224;28;20225;-84
2023/03/02 09:38:59;;;;;;;22.48;17.50;;;10.80;99.90;;;;;;5055447;28;20232;-83
2023/03/02 09:42:19;;;;;;;21.40;19.20;;;12.50;98.10;;;;;;5056058;28;20213;-84
2023/03/02 09:45:19;;;;;;;25.02;21.15;;;13.50;96.20;;;;;;5050437;28;20213;-83
2023/03/02 09:47:56;;;;;;;29.67;20.40;;;14.30;94.30;;;;;;5055467;28;20197;-83
2023/03/02 09:50:32;;;;;;;21.35;19.05;;;14.80;91.70;;;;;;5055722;28;20244;-84
2023/03/02 09:53:21;;;;;;;21.52;19.40;;;15.10;90.70;;;;;;5056054;28;20240;-83
2023/03/02 09:55:54;;;;;;;27.58;20.52;;;15.50;89.70;;;;;;5055454;28;20229;-83
2023/03/02 09:58:25;;;;;;;28.23;19.67;;;15.40;88.10;;;;;;5055358;28;20194;-84
2023/03/02 10:00:53;;;;;;;20.20;18.10;;;14.90;87.40;;;;;;5055790;28;20209;-83
2023/03/02 10:03:23;;;;;;;23.88;19.25;;;14.80;88.50;;;;;;5055670;28;20209;-83
2023/03/02 10:05:53;;;;;;;21.23;17.98;;;14.60;89.30;;;;;;5055618;28;20214;-82
2023/03/02 10:08:25;;;;;;;20.23;16.70;;;14.20;87.00;;;;;;5054511;28;20216;-82
2023/03/02 10:11:02;;;;;;;24.05;20.00;;;13.80;89.10;;;;;;5055647;28;20213;-82
2023/03/02 10:13:36;;;;;;;24.20;19.27;;;13.50;90.70;;;;;;5055729;28;20212;-84
2023/03/02 10:16:16;;;;;;;20.40;17.40;;;13.20;90.30;;;;;;5055190;28;20227;-83
2023/03/02 10:18:48;;;;;;;23.08;17.13;;;12.80;91.10;;;;;;5055108;28;20221;-82
2023/03/02 10:21:23;;;;;;;21.20;18.27;;;12.30;91.10;;;;;;5054567;28;20229;-83
2023/03/02 10:23:59;;;;;;;25.15;16.95;;;12.10;92.20;;;;;;5054226;28;20219;-82
2023/03/02 10:26:38;;;;;;;18.60;16.75;;;12.00;92.60;;;;;;5055460;28;20209;-83
2023/03/02 10:29:23;;;;;;;26.73;19.25;;;12.00;92.60;;;;;;5054995;28;20241;-83
2023/03/02 10:31:56;;;;;;;20.10;17.48;;;12.10;92.70;;;;;;5055176;28;20212;-82
2023/03/02 10:34:27;;;;;;;23.05;19.05;;;12.30;93.10;;;;;;5055064;28;20275;-82
2023/03/02 10:36:56;;;;;;;18.63;16.33;;;12.40;92.50;;;;;;5054437;28;20233;-82
2023/03/02 10:39:25;;;;;;;18.25;16.48;;;12.70;92.70;;;;;;5054965;28;20235;-82
2023/03/02 10:42:02;;;;;;;25.77;18.55;;;13.00;91.90;;;;;;5055312;28;20296;-82
2023/03/02 10:44:36;;;;;;;19.63;17.52;;;13.10;91.50;;;;;;5054462;28;20209;-83
2023/03/02 10:47:05;;;;;;;28.83;17.92;;;13.30;91.70;;;;;;5054116;28;20208;-83
2023/03/02 10:49:34;;;;;;;19.13;16.73;;;13.70;91.20;;;;;;5054315;28;20233;-84
2023/03/02 10:52:05;;;;;;;20.52;17.90;;;14.20;91.20;;;;;;5054769;28;20214;-83
2023/03/02 10:54:35;;;;;;;28.50;18.75;;;14.70;90.50;;;;;;5055748;28;20205;-83
2023/03/02 10:57:06;;;;;;;19.52;17.52;;;15.30;90.40;;;;;;5053953;28;20225;-82
2023/03/02 10:59:45;;;;;;;27.73;19.45;;;15.60;89.00;;;;;;5054279;28;20228;-82
2023/03/02 11:02:17;;;;;;;23.30;18.13;;;15.90;87.30;;;;;;5054661;28;20209;-82
2023/03/02 11:04:45;;;;;;;22.55;19.45;;;16.20;86.60;;;;;;5054531;28;20244;-82
2023/03/02 11:07:18;;;;;;;23.33;20.83;;;16.50;86.70;;;;;;5054088;28;20250;-82
2023/03/02 11:10:02;;;;;;;22.88;18.58;;;16.90;84.30;;;;;;5054323;28;20285;-82
2023/03/02 11:12:32;;;;;;;28.63;18.80;;;17.10;83.90;;;;;;5054547;28;20205;-82
2023/03/02 11:15:22;;;;;;;21.55;17.23;;;17.20;84.40;;;;;;5054233;28;20202;-82
2023/03/02 11:17:59;;;;;;;22.27;18.25;;;17.40;81.30;;;;;;5053417;28;20316;-83
2023/03/02 11:20:31;;;;;;;31.30;19.10;;;17.30;81.60;;;;;;5053950;28;20237;-83
2023/03/02 11:23:08;;;;;;;20.73;17.75;;;17.10;81.10;;;;;;5053232;28;20296;-83
2023/03/02 11:25:43;;;;;;;25.13;17.98;;;17.40;80.70;;;;;;5054074;28;20209;-83
2023/03/02 11:28:25;;;;;;;23.48;18.73;;;17.50;81.40;;;;;;5053360;28;20205;-83
2023/03/02 11:30:56;;;;;;;23.50;17.42;;;17.60;81.40;;;;;;5053866;28;20206;-82
2023/03/02 11:33:29;;;;;;;23.80;18.50;;;17.70;78.70;;;;;;5054217;28;20240;-83
2023/03/02 11:36:06;;;;;;;20.40;16.05;;;17.70;79.60;;;;;;5054046;28;20209;-83
2023/03/02 11:38:41;;;;;;;21.75;17.02;;;17.50;79.90;;;;;;5053194;28;20216;-83
2023/03/02 11:41:23;;;;;;;17.08;15.05;;;17.40;79.70;;;;;;5053840;28;20209;-82
2023/03/02 11:43:52;;;;;;;;;;;17.40;79.30;;;;;;5054091;28;20045;-81
2023/03/02 11:46:26;;;;;;;21.83;15.80;;;17.70;78.00;;;;;;5053703;28;20234;-81
2023/03/02 11:48:58;;;;;;;20.23;16.02;;;17.60;77.80;;;;;;5053105;28;20232;-81
2023/03/02 11:51:29;;;;;;;22.67;15.80;;;17.30;77.20;;;;;;5053638;28;20208;-81
2023/03/02 11:54:01;;;;;;;21.73;14.05;;;16.90;78.10;;;;;;5053477;28;20210;-81
2023/03/02 11:56:34;;;;;;;16.42;14.73;;;16.80;80.20;;;;;;5053218;28;20304;-81
2023/03/02 11:59:05;;;;;;;19.52;15.88;;;17.00;78.50;;;;;;5052716;28;20256;-81
2023/03/02 12:01:35;;;;;;;;;;;17.10;78.40;;;;;;5053814;28;20055;-81
2023/03/02 12:04:09;;;;;;;17.67;15.70;;;17.80;76.90;;;;;;5053211;28;20210;-81
2023/03/02 12:06:40;;;;;;;31.65;16.33;;;17.90;77.30;;;;;;5053568;28;20208;-80
2023/03/02 12:09:32;;;;;;;16.02;14.48;;;18.10;75.80;;;;;;5053225;28;20233;-81
2023/03/02 12:12:33;;;;;;;16.90;15.10;;;17.90;74.10;;;;;;5052852;28;20202;-81
2023/03/02 12:15:01;;;;;;;;;;;17.80;73.70;;;;;;5053933;28;20048;-81
2023/03/02 12:17:34;;;;;;;15.02;13.48;;;17.90;73.90;;;;;;5052475;28;20226;-82
2023/03/02 12:20:23;;;;;;;19.17;13.98;;;17.70;71.60;;;;;;5052918;28;20220;-82
2023/03/02 12:22:51;;;;;;;13.68;10.40;;;17.20;73.40;;;;;;5052229;28;20209;-81
2023/03/02 12:25:36;;;;;;;11.43;10.25;;;17.30;72.00;;;;;;5052939;28;20214;-81
2023/03/02 12:28:06;;;;;;;11.85;10.65;;;17.30;70.10;;;;;;5052386;28;20216;-82
2023/03/02 12:30:34;;;;;;;11.50;10.35;;;17.20;70.30;;;;;;5052773;28;20312;-81
2023/03/02 12:33:15;;;;;;;14.77;10.25;;;17.30;68.00;;;;;;5052760;28;20216;-81
2023/03/02 12:35:43;;;;;;;11.25;9.82;;;17.30;68.60;;;;;;5052831;28;20241;-81
2023/03/02 12:38:25;;;;;;;15.15;9.70;;;17.40;68.10;;;;;;5052032;28;20217;-82
2023/03/02 12:41:18;;;;;;;12.65;9.27;;;17.40;67.60;;;;;;5052748;28;20235;-82
2023/03/02 12:44:02;;;;;;;10.77;9.68;;;17.50;66.70;;;;;;5035389;28;20296;-81
2023/03/02 12:46:32;;;;;;;15.43;11.00;;;17.60;67.20;;;;;;5052713;28;20201;-81
2023/03/02 12:49:26;;;;;;;10.23;9.23;;;17.50;67.10;;;;;;5051849;28;20224;-81
2023/03/02 12:51:56;;;;;;;17.58;11.55;;;17.70;66.00;;;;;;5052610;28;20255;-81
2023/03/02 12:54:27;;;;;;;12.23;10.15;;;17.70;66.10;;;;;;5052724;28;20210;-81
2023/03/02 12:57:08;;;;;;;11.88;9.68;;;17.70;65.50;;;;;;5052130;28;20216;-81